createdAt,value
2022-08-06T00:00:03.573Z,15.12
2022-08-06T00:02:59.326Z,15.00
2022-08-06T00:06:02.061Z,15.02
2022-08-06T00:09:05.552Z,15.00
2022-08-06T00:12:10.739Z,15.02
2022-08-06T00:15:15.138Z,14.99
2022-08-06T00:18:18.346Z,14.87
2022-08-06T00:21:42.189Z,14.75
2022-08-06T00:24:43.632Z,14.74
2022-08-06T00:27:52.133Z,14.61
2022-08-06T00:30:58.227Z,14.53
2022-08-06T00:34:02.503Z,14.50
2022-08-06T00:37:05.174Z,14.42
2022-08-06T00:40:24.361Z,14.56
2022-08-06T00:43:39.520Z,14.52
2022-08-06T00:46:44.948Z,14.52
2022-08-06T00:49:49.699Z,14.46
2022-08-06T00:52:52.679Z,14.50
2022-08-06T00:56:01.266Z,14.48
2022-08-06T00:59:04.863Z,14.48
2022-08-06T01:02:18.774Z,14.49
2022-08-06T01:06:04.495Z,14.40
2022-08-06T01:08:45.316Z,14.40
2022-08-06T01:11:48.215Z,14.32
2022-08-06T01:15:02.535Z,14.31
2022-08-06T01:18:12.298Z,14.34
2022-08-06T01:22:00.422Z,14.34
2022-08-06T01:25:10.415Z,14.22
2022-08-06T01:28:18.617Z,14.22
2022-08-06T01:31:30.593Z,14.06
2022-08-06T01:34:47.230Z,14.02
2022-08-06T01:38:01.022Z,14.15
2022-08-06T01:41:07.356Z,14.04
2022-08-06T01:44:15.826Z,14.00
2022-08-06T01:47:21.299Z,13.91
2022-08-06T01:50:29.140Z,13.93
2022-08-06T01:54:05.278Z,13.87
2022-08-06T01:57:03.723Z,13.77
2022-08-06T02:00:13.249Z,13.69
2022-08-06T02:03:24.176Z,13.68
2022-08-06T02:06:36.804Z,13.65
2022-08-06T02:09:41.562Z,13.59
2022-08-06T02:12:47.034Z,13.58
2022-08-06T02:15:59.870Z,13.45
2022-08-06T02:19:12.357Z,13.44
2022-08-06T02:22:16.298Z,13.41
2022-08-06T02:25:31.094Z,13.28
2022-08-06T02:28:36.109Z,13.22
2022-08-06T02:31:50.505Z,13.12
2022-08-06T02:34:54.770Z,13.02
2022-08-06T02:38:07.626Z,12.93
2022-08-06T02:41:18.918Z,12.90
2022-08-06T02:44:33.317Z,12.87
2022-08-06T02:47:55.804Z,12.90
2022-08-06T02:51:43.276Z,12.80
2022-08-06T02:54:46.871Z,12.89
2022-08-06T02:57:54.527Z,12.81
2022-08-06T03:01:04.678Z,12.75
2022-08-06T03:04:15.366Z,12.69
2022-08-06T03:07:26.505Z,12.64
2022-08-06T03:10:33.527Z,12.71
2022-08-06T03:13:39.446Z,12.66
2022-08-06T03:16:46.350Z,12.64
2022-08-06T03:19:59.077Z,12.55
2022-08-06T03:23:08.181Z,12.50
2022-08-06T03:26:12.199Z,12.49
2022-08-06T03:29:15.464Z,12.49
2022-08-06T03:32:51.406Z,12.50
2022-08-06T03:35:50.746Z,12.46
2022-08-06T03:38:58.212Z,12.38
2022-08-06T03:42:07.569Z,12.37
2022-08-06T03:45:35.808Z,12.45
2022-08-06T03:48:38.945Z,12.41
2022-08-06T03:51:52.258Z,12.48
2022-08-06T03:55:04.314Z,12.52
2022-08-06T03:58:11.377Z,12.61
2022-08-06T04:01:20.115Z,12.66
2022-08-06T04:04:27.765Z,12.68
2022-08-06T04:07:54.138Z,12.81
2022-08-06T04:10:57.363Z,12.91
2022-08-06T04:14:06.070Z,12.84
2022-08-06T04:17:12.201Z,12.93
2022-08-06T04:20:41.902Z,13.03
2022-08-06T04:23:42.263Z,13.14
2022-08-06T04:26:51.067Z,13.19
2022-08-06T04:29:58.569Z,13.24
2022-08-06T04:33:04.072Z,13.52
2022-08-06T04:36:17.610Z,14.89
2022-08-06T04:39:25.595Z,15.61
2022-08-06T04:42:40.321Z,15.05
2022-08-06T04:46:17.460Z,16.61
2022-08-06T04:49:14.266Z,17.03
2022-08-06T04:52:46.743Z,16.39
2022-08-06T04:56:02.941Z,15.93
2022-08-06T04:59:07.446Z,16.03
2022-08-06T05:02:10.686Z,16.78
2022-08-06T05:05:20.959Z,16.17
2022-08-06T05:08:26.738Z,15.56
2022-08-06T05:11:57.267Z,14.96
2022-08-06T05:15:04.017Z,15.94
2022-08-06T05:18:14.975Z,15.86
2022-08-06T05:22:05.788Z,15.95
2022-08-06T05:25:02.677Z,16.79
2022-08-06T05:28:13.979Z,16.89
2022-08-06T05:31:30.586Z,17.38
2022-08-06T05:34:40.828Z,18.17
2022-08-06T05:38:01.259Z,19.10
2022-08-06T05:41:08.404Z,19.31
2022-08-06T05:44:12.497Z,18.70
2022-08-06T05:47:23.033Z,18.39
2022-08-06T05:50:30.797Z,18.05
2022-08-06T05:54:02.674Z,18.35
2022-08-06T05:57:07.077Z,18.53
2022-08-06T06:00:42.193Z,18.63
2022-08-06T06:03:39.989Z,18.32
2022-08-06T06:06:43.404Z,17.22
2022-08-06T06:09:56.615Z,16.79
2022-08-06T06:13:25.178Z,17.11
2022-08-06T06:16:35.065Z,17.88
2022-08-06T06:19:52.429Z,17.93
2022-08-06T06:23:01.688Z,18.07
2022-08-06T06:26:33.010Z,18.92
2022-08-06T06:30:05.623Z,18.45
2022-08-06T06:33:16.654Z,18.26
2022-08-06T06:36:27.977Z,18.94
2022-08-06T06:39:37.496Z,18.62
2022-08-06T06:42:46.575Z,18.79
2022-08-06T06:46:05.251Z,19.20
2022-08-06T06:50:00.050Z,19.03
2022-08-06T06:52:52.988Z,19.02
2022-08-06T06:56:02.661Z,18.64
2022-08-06T06:59:16.663Z,19.26
2022-08-06T07:02:23.750Z,19.78
2022-08-06T07:06:06.309Z,20.03
2022-08-06T07:08:58.368Z,20.55
2022-08-06T07:12:04.122Z,21.04
2022-08-06T07:15:18.929Z,20.27
2022-08-06T07:18:26.075Z,20.83
2022-08-06T07:21:34.155Z,21.66
2022-08-06T07:24:45.464Z,21.99
2022-08-06T07:27:55.537Z,22.64
2022-08-06T07:31:04.465Z,22.53
2022-08-06T07:34:12.636Z,21.98
2022-08-06T07:37:22.797Z,22.39
2022-08-06T07:40:28.821Z,22.64
2022-08-06T07:43:35.918Z,22.78
2022-08-06T07:46:47.384Z,21.58
2022-08-06T07:50:00.664Z,21.75
2022-08-06T07:53:05.464Z,22.17
2022-08-06T07:56:10.321Z,20.71
2022-08-06T07:59:15.132Z,20.91
2022-08-06T08:02:18.942Z,22.47
2022-08-06T08:06:00.035Z,22.10
2022-08-06T08:09:10.679Z,22.35
2022-08-06T08:12:25.704Z,23.08
2022-08-06T08:15:43.516Z,22.24
2022-08-06T08:18:46.407Z,22.71
2022-08-06T08:21:49.684Z,23.55
2022-08-06T08:24:54.615Z,24.79
2022-08-06T08:27:57.374Z,22.19
2022-08-06T08:31:08.873Z,20.23
2022-08-06T08:34:27.241Z,20.91
2022-08-06T08:37:31.814Z,22.57
2022-08-06T08:40:38.023Z,24.28
2022-08-06T08:44:00.442Z,24.45
2022-08-06T08:47:12.469Z,22.96
2022-08-06T08:50:18.466Z,24.36
2022-08-06T08:53:45.765Z,24.33
2022-08-06T08:57:10.696Z,25.54
2022-08-06T09:00:15.836Z,26.21
2022-08-06T09:03:29.874Z,24.71
2022-08-06T09:06:39.741Z,23.26
2022-08-06T09:09:47.303Z,21.57
2022-08-06T09:13:22.740Z,21.42
2022-08-06T09:16:31.587Z,22.08
2022-08-06T09:19:37.433Z,21.90
2022-08-06T09:22:45.279Z,22.00
2022-08-06T09:25:51.790Z,21.95
2022-08-06T09:28:56.154Z,22.51
2022-08-06T09:32:00.188Z,22.05
2022-08-06T09:35:04.725Z,21.49
2022-08-06T09:38:19.533Z,21.23
2022-08-06T09:41:24.579Z,20.98
2022-08-06T09:44:37.151Z,20.63
2022-08-06T09:47:40.776Z,20.11
2022-08-06T09:50:47.184Z,23.07
2022-08-06T09:54:05.521Z,25.33
2022-08-06T09:57:16.801Z,25.75
2022-08-06T10:00:29.914Z,26.55
2022-08-06T10:04:05.039Z,27.69
2022-08-06T10:07:06.192Z,27.70
2022-08-06T10:10:10.735Z,25.08
2022-08-06T10:13:19.266Z,23.10
2022-08-06T10:16:29.088Z,22.19
2022-08-06T10:19:35.757Z,21.59
2022-08-06T10:22:51.587Z,21.50
2022-08-06T10:25:54.683Z,22.13
2022-08-06T10:29:03.449Z,24.74
2022-08-06T10:32:11.649Z,26.08
2022-08-06T10:35:18.887Z,26.80
2022-08-06T10:38:34.609Z,27.76
2022-08-06T10:42:00.434Z,25.89
2022-08-06T10:45:08.046Z,24.01
2022-08-06T10:48:59.970Z,22.49
2022-08-06T10:51:56.044Z,21.62
2022-08-06T10:55:01.858Z,23.44
2022-08-06T10:58:04.711Z,24.63
2022-08-06T11:01:09.953Z,23.56
2022-08-06T11:04:26.552Z,21.84
2022-08-06T11:08:09.608Z,21.18
2022-08-06T11:11:31.083Z,24.04
2022-08-06T11:14:37.864Z,26.27
2022-08-06T11:17:46.021Z,27.07
2022-08-06T11:20:51.346Z,25.78
2022-08-06T11:24:02.555Z,25.77
2022-08-06T11:27:10.771Z,24.01
2022-08-06T11:30:15.122Z,22.47
2022-08-06T11:33:21.412Z,22.08
2022-08-06T11:36:29.715Z,23.24
2022-08-06T11:39:53.120Z,25.10
2022-08-06T11:42:56.557Z,25.88
2022-08-06T11:46:31.577Z,24.62
2022-08-06T11:49:44.167Z,22.90
2022-08-06T11:52:48.794Z,22.15
2022-08-06T11:56:05.704Z,21.70
2022-08-06T11:59:15.873Z,23.13
2022-08-06T12:02:55.967Z,24.92
2022-08-06T12:06:00.431Z,23.10
2022-08-06T12:09:16.041Z,21.58
2022-08-06T12:12:38.369Z,20.86
2022-08-06T12:15:59.526Z,22.34
2022-08-06T12:19:12.405Z,24.83
2022-08-06T12:22:16.361Z,26.15
2022-08-06T12:25:19.921Z,27.20
2022-08-06T12:28:24.967Z,26.74
2022-08-06T12:31:35.044Z,27.25
2022-08-06T12:34:40.894Z,27.47
2022-08-06T12:38:01.948Z,26.89
2022-08-06T12:41:09.533Z,25.70
2022-08-06T12:44:20.204Z,24.59
2022-08-06T12:48:03.340Z,25.59
2022-08-06T12:51:11.485Z,25.39
2022-08-06T12:54:26.068Z,24.71
2022-08-06T12:57:57.933Z,24.10
2022-08-06T13:00:56.473Z,25.55
2022-08-06T13:04:06.688Z,24.50
2022-08-06T13:07:14.430Z,23.75
2022-08-06T13:10:35.354Z,23.24
2022-08-06T13:14:13.045Z,22.81
2022-08-06T13:17:18.921Z,23.76
2022-08-06T13:20:40.436Z,25.98
2022-08-06T13:23:49.388Z,27.25
2022-08-06T13:26:54.653Z,27.37
2022-08-06T13:30:32.526Z,27.39
2022-08-06T13:33:26.681Z,27.09
2022-08-06T13:36:32.674Z,25.85
2022-08-06T13:39:38.349Z,25.26
2022-08-06T13:42:51.300Z,24.00
2022-08-06T13:46:06.226Z,24.65
2022-08-06T13:49:14.957Z,25.27
2022-08-06T13:52:18.081Z,25.86
2022-08-06T13:55:27.342Z,25.03
2022-08-06T13:58:49.856Z,23.81
2022-08-06T14:01:53.013Z,22.54
2022-08-06T14:04:56.333Z,22.03
2022-08-06T14:08:00.089Z,22.44
2022-08-06T14:11:04.578Z,24.38
2022-08-06T14:14:07.292Z,24.62
2022-08-06T14:17:09.888Z,24.11
2022-08-06T14:20:17.087Z,23.86
2022-08-06T14:23:26.587Z,23.65
2022-08-06T14:26:44.609Z,23.38
2022-08-06T14:30:26.367Z,22.38
2022-08-06T14:33:19.129Z,21.80
2022-08-06T14:36:29.537Z,21.53
2022-08-06T14:39:59.165Z,21.40
2022-08-06T14:43:17.594Z,21.95
2022-08-06T14:46:20.210Z,22.57
2022-08-06T14:49:45.658Z,22.70
2022-08-06T14:52:51.076Z,23.75
2022-08-06T14:56:07.365Z,23.86
2022-08-06T14:59:12.283Z,23.21
2022-08-06T15:02:16.699Z,22.37
2022-08-06T15:05:41.602Z,22.00
2022-08-06T15:08:43.544Z,22.02
2022-08-06T15:12:00.431Z,22.75
2022-08-06T15:15:09.204Z,24.03
2022-08-06T15:18:54.375Z,24.76
2022-08-06T15:21:51.381Z,23.73
2022-08-06T15:24:59.971Z,23.73
2022-08-06T15:28:04.866Z,23.38
2022-08-06T15:31:08.918Z,22.42
2022-08-06T15:34:20.300Z,21.92
2022-08-06T15:37:54.971Z,21.58
2022-08-06T15:40:52.189Z,21.19
2022-08-06T15:43:55.519Z,21.10
2022-08-06T15:47:00.624Z,21.89
2022-08-06T15:50:05.658Z,22.00
2022-08-06T15:53:23.162Z,22.19
2022-08-06T15:56:33.870Z,22.22
2022-08-06T15:59:52.087Z,22.64
2022-08-06T16:02:56.561Z,22.98
2022-08-06T16:06:10.458Z,22.44
2022-08-06T16:09:27.067Z,21.75
2022-08-06T16:12:31.121Z,21.62
2022-08-06T16:15:34.306Z,21.51
2022-08-06T16:18:49.160Z,21.60
2022-08-06T16:21:55.309Z,21.68
2022-08-06T16:24:59.510Z,21.52
2022-08-06T16:28:01.988Z,21.08
2022-08-06T16:31:11.222Z,20.71
2022-08-06T16:34:23.035Z,21.34
2022-08-06T16:40:54.487Z,21.39
2022-08-06T16:43:57.523Z,21.81
2022-08-06T16:47:01.496Z,21.92
2022-08-06T16:54:13.397Z,22.15
2022-08-06T16:56:58.654Z,22.14
2022-08-06T17:00:01.301Z,22.01
2022-08-06T17:06:31.432Z,21.82
2022-08-06T17:09:47.974Z,21.93
2022-08-06T17:16:23.369Z,22.09
2022-08-06T17:19:32.594Z,22.02
2022-08-06T17:22:36.631Z,21.78
2022-08-06T17:25:51.013Z,21.68
2022-08-06T17:28:54.298Z,21.48
2022-08-06T17:31:58.979Z,21.46
2022-08-06T17:35:06.104Z,21.31
2022-08-06T17:38:16.066Z,20.97
2022-08-06T17:41:19.329Z,20.90
2022-08-06T17:42:28.415Z,21.50
2022-08-06T17:44:22.284Z,20.68
2022-08-06T17:47:49.835Z,20.66
2022-08-06T17:50:49.290Z,20.77
2022-08-06T17:53:55.217Z,20.71
2022-08-06T17:56:58.439Z,20.66
2022-08-06T18:00:02.824Z,20.67
2022-08-06T18:03:05.836Z,20.48
2022-08-06T18:06:16.922Z,20.37
2022-08-06T18:10:09.372Z,19.98
2022-08-06T18:12:48.784Z,19.37
2022-08-06T18:15:51.985Z,18.95
2022-08-06T18:18:55.407Z,18.68
2022-08-06T18:21:59.372Z,18.63
2022-08-06T18:25:15.312Z,18.68
2022-08-06T18:28:27.148Z,18.66
2022-08-06T18:31:59.898Z,18.54
2022-08-06T18:35:04.417Z,18.38
2022-08-06T18:38:08.352Z,18.15
2022-08-06T18:41:15.240Z,17.98
2022-08-06T18:44:18.499Z,17.72
2022-08-06T18:47:22.080Z,17.44
2022-08-06T18:50:25.020Z,17.29
2022-08-06T18:54:01.391Z,17.04
2022-08-06T18:56:56.250Z,16.58
2022-08-06T18:59:58.930Z,16.23
2022-08-06T19:03:02.404Z,15.92
2022-08-06T19:06:07.141Z,15.73
2022-08-06T19:09:10.080Z,15.65
2022-08-06T19:12:20.717Z,15.67
2022-08-06T19:15:24.781Z,15.67
2022-08-06T19:18:51.258Z,15.67
2022-08-06T19:22:00.220Z,15.65
2022-08-06T19:25:09.755Z,15.58
2022-08-06T19:28:32.553Z,15.42
2022-08-06T19:31:42.363Z,15.32
2022-08-06T19:34:46.053Z,15.26
2022-08-06T19:37:59.587Z,15.06
2022-08-06T19:41:03.740Z,14.89
2022-08-06T19:44:27.061Z,14.84
2022-08-06T19:47:35.408Z,14.73
2022-08-06T19:50:41.354Z,14.59
2022-08-06T19:53:54.494Z,14.40
2022-08-06T19:56:57.309Z,14.25
2022-08-06T20:00:55.249Z,14.16
2022-08-06T20:03:24.284Z,14.01
2022-08-06T20:06:54.615Z,13.91
2022-08-06T20:10:00.091Z,13.78
2022-08-06T20:13:06.207Z,13.70
2022-08-06T20:16:13.050Z,13.56
2022-08-06T20:19:15.561Z,13.49
2022-08-06T20:22:20.780Z,13.39
2022-08-06T20:25:23.892Z,13.30
2022-08-06T20:29:08.855Z,13.24
2022-08-06T20:31:55.557Z,13.05
2022-08-06T20:34:58.245Z,12.90
2022-08-06T20:38:03.368Z,12.80
2022-08-06T20:41:58.521Z,12.69
2022-08-06T20:44:32.814Z,12.57
2022-08-06T20:47:44.895Z,12.49
2022-08-06T20:50:51.364Z,12.42
2022-08-06T20:53:56.383Z,12.41
2022-08-06T20:57:04.813Z,12.36
2022-08-06T21:00:17.234Z,12.28
2022-08-06T21:03:28.728Z,12.17
2022-08-06T21:06:47.441Z,12.06
2022-08-06T21:09:56.271Z,11.90
2022-08-06T21:13:01.953Z,11.82
2022-08-06T21:16:14.370Z,11.73
2022-08-06T21:23:55.761Z,11.46
2022-08-06T21:26:59.394Z,11.40
2022-08-06T21:30:11.514Z,11.34
2022-08-06T21:33:17.039Z,11.25
2022-08-06T21:36:20.135Z,11.18
2022-08-06T21:39:57.231Z,11.08
2022-08-06T21:42:55.597Z,10.98
2022-08-06T21:46:04.702Z,10.86
2022-08-06T21:49:08.452Z,10.90
2022-08-06T21:52:11.332Z,10.88
2022-08-06T21:56:38.091Z,10.85
2022-08-06T21:58:42.656Z,10.83
2022-08-06T22:02:13.396Z,10.85
2022-08-06T22:05:16.783Z,10.88
2022-08-06T22:08:32.411Z,10.79
2022-08-06T22:12:39.521Z,10.70
2022-08-06T22:15:02.780Z,10.57
2022-08-06T22:18:06.703Z,10.48
2022-08-06T22:21:09.237Z,10.38
2022-08-06T22:24:16.994Z,10.38
2022-08-06T22:27:20.817Z,10.41
2022-08-06T22:30:33.832Z,10.45
2022-08-06T22:33:58.433Z,10.51
2022-08-06T22:37:03.797Z,10.55
2022-08-06T22:40:07.348Z,10.50
2022-08-06T22:43:18.996Z,10.36
2022-08-06T22:46:27.117Z,10.24
2022-08-06T22:49:29.679Z,10.16
2022-08-06T22:53:02.772Z,10.21
2022-08-06T22:56:01.755Z,10.20
2022-08-06T22:59:31.352Z,10.11
2022-08-06T23:02:28.685Z,10.02
2022-08-06T23:05:31.738Z,9.99
2022-08-06T23:08:34.263Z,10.00
2022-08-06T23:11:36.788Z,10.02
2022-08-06T23:14:42.304Z,10.03
2022-08-06T23:17:52.354Z,9.95
2022-08-06T23:21:20.333Z,9.89
2022-08-06T23:24:35.339Z,9.85
2022-08-06T23:27:46.299Z,9.84
2022-08-06T23:30:53.709Z,9.81
2022-08-06T23:33:59.986Z,9.75
2022-08-06T23:37:10.571Z,9.77
2022-08-06T23:40:16.012Z,9.77
2022-08-06T23:43:19.497Z,9.74
2022-08-06T23:46:27.729Z,9.72
2022-08-06T23:49:31.025Z,9.67
2022-08-06T23:52:34.375Z,9.59
2022-08-06T23:55:59.329Z,9.49
2022-08-06T23:59:02.204Z,9.43
